createdAt,value
2022-11-09T00:00:11.889Z,15.3
2022-11-09T00:03:12.065Z,15.3
2022-11-09T00:06:11.949Z,15.1
2022-11-09T00:09:19.448Z,15.1
2022-11-09T00:12:11.753Z,15.1
2022-11-09T00:15:11.887Z,15.1
2022-11-09T00:18:11.841Z,15.1
2022-11-09T00:21:11.839Z,15.1
2022-11-09T00:24:11.794Z,15.1
2022-11-09T00:27:17.570Z,15.3
2022-11-09T00:30:12.076Z,15.3
2022-11-09T00:33:11.754Z,15.3
2022-11-09T00:36:11.903Z,15.3
2022-11-09T00:39:11.760Z,15.3
2022-11-09T00:42:12.039Z,15.3
2022-11-09T00:45:11.760Z,15.1
2022-11-09T00:48:11.748Z,15.1
2022-11-09T00:51:11.869Z,15.1
2022-11-09T00:54:11.979Z,15.1
2022-11-09T00:57:11.851Z,15
2022-11-09T01:00:11.778Z,15
2022-11-09T01:03:11.828Z,14.9
2022-11-09T01:06:11.865Z,14.9
2022-11-09T01:09:11.857Z,14.7
2022-11-09T01:12:11.800Z,14.7
2022-11-09T01:15:11.875Z,14.7
2022-11-09T01:18:11.759Z,14.7
2022-11-09T01:21:11.752Z,14.6
2022-11-09T01:24:12.284Z,14.7
2022-11-09T01:27:11.923Z,14.7
2022-11-09T01:30:12.102Z,14.6
2022-11-09T01:33:11.836Z,14.7
2022-11-09T01:36:11.867Z,14.6
2022-11-09T01:39:11.773Z,14.6
2022-11-09T01:42:11.868Z,14.5
2022-11-09T01:45:11.889Z,14.4
2022-11-09T01:48:11.776Z,14.3
2022-11-09T01:51:11.874Z,14.1
2022-11-09T01:54:11.775Z,14.1
2022-11-09T01:57:11.752Z,14.1
2022-11-09T02:00:11.941Z,14.1
2022-11-09T02:03:11.916Z,14
2022-11-09T02:06:11.798Z,14
2022-11-09T02:09:11.893Z,14
2022-11-09T02:12:12.013Z,14
2022-11-09T02:15:11.722Z,14
2022-11-09T02:18:11.774Z,14
2022-11-09T02:21:11.715Z,14.1
2022-11-09T02:24:11.813Z,14.1
2022-11-09T02:27:12.047Z,14.1
2022-11-09T02:30:11.821Z,14.3
2022-11-09T02:33:11.812Z,14.4
2022-11-09T02:36:11.830Z,14.5
2022-11-09T02:39:11.800Z,14.5
2022-11-09T02:42:26.276Z,14.6
2022-11-09T02:45:11.833Z,14.6
2022-11-09T02:48:11.808Z,14.7
2022-11-09T02:51:11.847Z,14.7
2022-11-09T02:54:11.788Z,14.7
2022-11-09T02:57:11.948Z,14.7
2022-11-09T03:00:11.763Z,14.7
2022-11-09T03:03:11.822Z,14.7
2022-11-09T03:06:12.167Z,14.9
2022-11-09T03:09:11.803Z,14.9
2022-11-09T03:12:11.937Z,14.9
2022-11-09T03:15:11.914Z,14.9
2022-11-09T03:18:11.963Z,15
2022-11-09T03:21:12.171Z,15
2022-11-09T03:24:11.990Z,15
2022-11-09T03:27:11.720Z,15
2022-11-09T03:30:11.916Z,15
2022-11-09T03:33:11.784Z,15
2022-11-09T03:36:11.791Z,15.1
2022-11-09T03:39:11.750Z,15.1
2022-11-09T03:42:12.163Z,15.1
2022-11-09T03:45:11.859Z,15.1
2022-11-09T03:48:11.909Z,15.1
2022-11-09T03:51:11.740Z,15.1
2022-11-09T03:54:11.856Z,15
2022-11-09T03:57:11.679Z,15
2022-11-09T04:00:11.830Z,15
2022-11-09T04:03:11.819Z,15
2022-11-09T04:06:12.007Z,14.9
2022-11-09T04:09:11.736Z,14.9
2022-11-09T04:12:11.810Z,14.9
2022-11-09T04:15:11.758Z,14.9
2022-11-09T04:18:11.833Z,14.9
2022-11-09T04:21:11.961Z,14.9
2022-11-09T04:24:11.741Z,14.9
2022-11-09T04:27:11.848Z,14.9
2022-11-09T04:30:11.845Z,14.9
2022-11-09T04:33:11.850Z,14.9
2022-11-09T04:36:11.812Z,14.9
2022-11-09T04:39:11.755Z,14.9
2022-11-09T04:42:11.878Z,14.7
2022-11-09T04:45:11.792Z,14.7
2022-11-09T04:48:11.749Z,14.6
2022-11-09T04:51:11.731Z,14.6
2022-11-09T04:54:11.801Z,14.5
2022-11-09T04:57:11.794Z,14.4
2022-11-09T05:00:11.943Z,14.4
2022-11-09T05:03:11.689Z,14.3
2022-11-09T05:06:11.881Z,14.3
2022-11-09T05:09:11.717Z,14.3
2022-11-09T05:12:11.810Z,14.1
2022-11-09T05:15:11.692Z,14.1
2022-11-09T05:18:12.189Z,14.1
2022-11-09T05:21:11.709Z,14.1
2022-11-09T05:24:12.274Z,14.1
2022-11-09T05:27:11.781Z,14
2022-11-09T05:30:11.801Z,14
2022-11-09T05:33:11.785Z,14
2022-11-09T05:36:11.821Z,14
2022-11-09T05:39:11.767Z,14
2022-11-09T05:42:11.817Z,14
2022-11-09T05:45:53.411Z,14
2022-11-09T05:48:11.804Z,14
2022-11-09T05:51:11.755Z,14
2022-11-09T05:54:11.918Z,14
2022-11-09T05:57:11.769Z,14
2022-11-09T06:00:17.817Z,14
2022-11-09T06:03:11.791Z,13.9
2022-11-09T06:06:19.605Z,13.9
2022-11-09T06:09:11.965Z,13.9
2022-11-09T06:12:11.833Z,13.8
2022-11-09T06:15:11.792Z,13.8
2022-11-09T06:18:11.997Z,13.6
2022-11-09T06:21:11.825Z,13.6
2022-11-09T06:24:11.842Z,13.6
2022-11-09T06:27:11.747Z,13.6
2022-11-09T06:30:12.356Z,13.5
2022-11-09T06:33:11.770Z,13.5
2022-11-09T06:36:11.905Z,13.5
2022-11-09T06:39:11.858Z,13.6
2022-11-09T06:42:12.263Z,13.6
2022-11-09T06:45:11.766Z,13.6
2022-11-09T06:48:12.069Z,13.8
2022-11-09T06:51:12.062Z,13.8
2022-11-09T06:54:11.896Z,13.8
2022-11-09T07:00:11.912Z,13.8
2022-11-09T07:03:11.953Z,13.8
2022-11-09T07:06:11.881Z,13.9
2022-11-09T07:09:11.894Z,13.9
2022-11-09T07:12:11.769Z,14.1
2022-11-09T07:15:16.097Z,14.3
2022-11-09T07:18:11.888Z,14.3
2022-11-09T07:21:18.948Z,14.4
2022-11-09T07:24:11.860Z,14.5
2022-11-09T07:27:12.110Z,14.6
2022-11-09T07:30:12.034Z,14.9
2022-11-09T07:33:24.229Z,15
2022-11-09T07:36:13.691Z,15.1
2022-11-09T07:39:11.913Z,15.1
2022-11-09T07:42:11.892Z,15.1
2022-11-09T07:45:11.813Z,15.1
2022-11-09T07:48:11.987Z,15
2022-11-09T07:57:11.815Z,15
2022-11-09T08:03:12.191Z,15
2022-11-09T08:06:17.247Z,15.3
2022-11-09T08:09:11.870Z,15.5
2022-11-09T08:12:11.872Z,15.8
2022-11-09T08:15:11.798Z,16.3
2022-11-09T08:18:11.812Z,16.9
2022-11-09T08:21:11.824Z,17.5
2022-11-09T08:24:11.829Z,18.3
2022-11-09T08:27:11.855Z,18.8
2022-11-09T08:30:11.903Z,19.3
2022-11-09T08:33:11.800Z,19.5
2022-11-09T08:36:11.861Z,19.5
2022-11-09T08:39:11.822Z,19.5
2022-11-09T08:42:12.521Z,19.5
2022-11-09T08:45:11.915Z,19.5
2022-11-09T08:48:11.822Z,19.5
2022-11-09T08:51:11.943Z,19.5
2022-11-09T08:54:11.833Z,19.5
2022-11-09T08:57:11.815Z,19.6
2022-11-09T09:00:12.005Z,20
2022-11-09T09:03:11.874Z,20.3
2022-11-09T09:06:11.845Z,20.5
2022-11-09T09:09:11.847Z,20.5
2022-11-09T09:12:11.808Z,20.6
2022-11-09T09:15:11.827Z,20.6
2022-11-09T09:18:11.798Z,20.5
2022-11-09T09:21:11.798Z,20.4
2022-11-09T09:24:11.755Z,20
2022-11-09T09:27:11.850Z,19.6
2022-11-09T09:30:11.931Z,19.5
2022-11-09T09:33:11.813Z,19.6
2022-11-09T09:36:11.773Z,19.8
2022-11-09T09:39:11.831Z,20
2022-11-09T09:42:12.109Z,20.1
2022-11-09T09:45:11.913Z,20.1
2022-11-09T09:48:11.751Z,20
2022-11-09T09:51:11.802Z,20.1
2022-11-09T09:54:11.889Z,20.4
2022-11-09T09:57:11.784Z,20.6
2022-11-09T10:00:11.973Z,21.1
2022-11-09T10:03:11.711Z,23.5
2022-11-09T10:06:11.835Z,23.7
2022-11-09T10:09:11.814Z,23.1
2022-11-09T10:12:12.711Z,22.5
2022-11-09T10:15:11.863Z,22.6
2022-11-09T10:18:11.780Z,22.5
2022-11-09T10:21:11.747Z,22.1
2022-11-09T10:24:11.778Z,22
2022-11-09T10:27:11.731Z,22.1
2022-11-09T10:30:11.843Z,24
2022-11-09T10:33:11.831Z,23.7
2022-11-09T10:36:19.343Z,23.5
2022-11-09T10:39:11.741Z,23.4
2022-11-09T10:42:11.848Z,23.4
2022-11-09T10:45:11.804Z,23.9
2022-11-09T10:48:11.861Z,23.1
2022-11-09T10:51:11.910Z,23.5
2022-11-09T10:54:11.787Z,26.2
2022-11-09T10:57:18.061Z,24.9
2022-11-09T11:00:11.875Z,24.9
2022-11-09T11:03:11.936Z,27.6
2022-11-09T11:06:11.810Z,29.9
2022-11-09T11:09:11.923Z,30.8
2022-11-09T11:12:11.836Z,31
2022-11-09T11:15:11.753Z,31.8
2022-11-09T11:18:11.773Z,30.1
2022-11-09T11:21:14.923Z,29
2022-11-09T11:24:11.828Z,28.1
2022-11-09T11:27:18.144Z,26.8
2022-11-09T11:30:11.918Z,26.2
2022-11-09T11:33:11.887Z,29.5
2022-11-09T11:36:11.772Z,30.8
2022-11-09T11:39:11.764Z,33.4
2022-11-09T11:42:11.947Z,35.7
2022-11-09T11:45:51.257Z,37
2022-11-09T11:48:11.848Z,36.9
2022-11-09T11:51:11.806Z,36.1
2022-11-09T11:54:11.806Z,35
2022-11-09T11:57:11.786Z,35.9
2022-11-09T12:00:11.979Z,36.7
2022-11-09T12:03:12.396Z,38
2022-11-09T12:06:11.785Z,39
2022-11-09T12:09:11.921Z,39.1
2022-11-09T12:12:11.802Z,37.7
2022-11-09T12:15:11.950Z,37.2
2022-11-09T12:18:11.855Z,34.2
2022-11-09T12:21:11.736Z,30.8
2022-11-09T12:24:11.807Z,28.5
2022-11-09T12:27:42.937Z,26.6
2022-11-09T12:30:11.837Z,25.1
2022-11-09T12:33:12.661Z,24.3
2022-11-09T12:36:12.548Z,23.6
2022-11-09T12:39:12.091Z,23.5
2022-11-09T12:42:12.076Z,23.3
2022-11-09T12:45:11.867Z,22.8
2022-11-09T12:48:11.939Z,22.2
2022-11-09T12:51:11.873Z,21.6
2022-11-09T12:54:11.744Z,21.1
2022-11-09T12:57:11.815Z,20.9
2022-11-09T13:00:12.260Z,21
2022-11-09T13:03:11.820Z,21.2
2022-11-09T13:06:13.965Z,20.9
2022-11-09T13:09:11.871Z,20.6
2022-11-09T13:12:18.407Z,20.8
2022-11-09T13:15:11.798Z,21.2
2022-11-09T13:18:11.978Z,21.4
2022-11-09T13:21:11.815Z,21.5
2022-11-09T13:24:29.304Z,22
2022-11-09T13:27:12.332Z,22.6
2022-11-09T13:30:11.889Z,22.8
2022-11-09T13:33:11.829Z,22.5
2022-11-09T13:36:11.879Z,22
2022-11-09T13:39:11.815Z,21.6
2022-11-09T13:42:11.958Z,21.2
2022-11-09T13:45:11.782Z,20.9
2022-11-09T13:48:12.448Z,20.9
2022-11-09T13:51:12.431Z,20.4
2022-11-09T13:54:11.754Z,19.9
2022-11-09T13:57:11.837Z,19.5
2022-11-09T14:00:12.022Z,19
2022-11-09T14:03:11.811Z,18.6
2022-11-09T14:06:11.823Z,18.3
2022-11-09T14:09:11.855Z,18
2022-11-09T14:12:12.290Z,17.8
2022-11-09T14:15:11.810Z,17.6
2022-11-09T14:18:12.305Z,17.6
2022-11-09T14:21:11.870Z,17.4
2022-11-09T14:24:12.326Z,17
2022-11-09T14:27:11.926Z,16.9
2022-11-09T14:30:11.805Z,16.9
2022-11-09T14:33:11.857Z,16.9
2022-11-09T14:36:11.741Z,16.8
2022-11-09T14:39:11.949Z,16.6
2022-11-09T14:42:11.775Z,16.4
2022-11-09T14:45:11.824Z,16.3
2022-11-09T14:48:12.004Z,16.1
2022-11-09T14:51:12.001Z,16
2022-11-09T14:54:11.858Z,15.8
2022-11-09T14:57:11.863Z,15.4
2022-11-09T15:00:12.083Z,14.7
2022-11-09T15:03:11.828Z,14.3
2022-11-09T15:06:11.854Z,13.9
2022-11-09T15:09:11.806Z,13.5
2022-11-09T15:12:11.873Z,13.3
2022-11-09T15:15:11.900Z,12.9
2022-11-09T15:18:11.921Z,12.6
2022-11-09T15:21:12.131Z,12.4
2022-11-09T15:24:12.019Z,12.2
2022-11-09T15:27:11.765Z,12
2022-11-09T15:30:12.023Z,11.9
2022-11-09T15:33:11.900Z,11.8
2022-11-09T15:36:11.817Z,11.6
2022-11-09T15:39:11.801Z,11.5
2022-11-09T15:42:11.879Z,11.4
2022-11-09T15:45:12.734Z,11.3
2022-11-09T15:48:11.943Z,11.3
2022-11-09T15:51:12.028Z,11.1
2022-11-09T15:54:11.949Z,11.1
2022-11-09T15:57:11.905Z,11
2022-11-09T16:00:25.185Z,11
2022-11-09T16:03:11.766Z,10.9
2022-11-09T16:06:11.830Z,10.8
2022-11-09T16:09:11.825Z,10.8
2022-11-09T16:12:11.842Z,10.6
2022-11-09T16:15:11.788Z,10.5
2022-11-09T16:18:11.851Z,10.4
2022-11-09T16:21:11.744Z,10.4
2022-11-09T16:24:11.756Z,10.3
2022-11-09T16:27:53.702Z,10.1
2022-11-09T16:30:11.800Z,10.1
2022-11-09T16:33:11.864Z,10
2022-11-09T16:36:11.771Z,9.9
2022-11-09T16:39:11.737Z,9.9
2022-11-09T16:42:11.813Z,9.8
2022-11-09T16:45:11.845Z,9.6
2022-11-09T16:48:11.767Z,9.5
2022-11-09T16:51:11.849Z,9.5
2022-11-09T16:54:11.774Z,9.4
2022-11-09T16:57:11.853Z,9.4
2022-11-09T17:00:11.871Z,9.3
2022-11-09T17:03:12.039Z,9.3
2022-11-09T17:06:11.760Z,9.1
2022-11-09T17:09:11.954Z,9.1
2022-11-09T17:12:11.813Z,9
2022-11-09T17:15:11.756Z,9
2022-11-09T17:18:11.827Z,8.9
2022-11-09T17:21:11.852Z,8.9
2022-11-09T17:24:11.860Z,8.8
2022-11-09T17:27:11.993Z,8.6
2022-11-09T17:30:11.837Z,8.5
2022-11-09T17:33:11.788Z,8.4
2022-11-09T17:36:11.812Z,8.3
2022-11-09T17:39:11.708Z,8.3
2022-11-09T17:42:11.753Z,8.3
2022-11-09T17:45:11.769Z,8.3
2022-11-09T17:48:11.830Z,8.1
2022-11-09T17:51:11.784Z,8.1
2022-11-09T17:54:11.806Z,8.1
2022-11-09T17:57:11.712Z,8.1
2022-11-09T18:00:11.854Z,8.3
2022-11-09T18:03:11.765Z,8.4
2022-11-09T18:06:11.779Z,8.5
2022-11-09T18:09:52.488Z,8.6
2022-11-09T18:12:11.765Z,8.6
2022-11-09T18:15:11.713Z,8.8
2022-11-09T18:18:12.130Z,8.9
2022-11-09T18:21:11.746Z,8.9
2022-11-09T18:24:11.843Z,9
2022-11-09T18:27:11.808Z,9.1
2022-11-09T18:30:11.932Z,9.3
2022-11-09T18:33:11.748Z,9.4
2022-11-09T18:36:11.813Z,9.4
2022-11-09T18:39:11.853Z,9.5
2022-11-09T18:42:11.725Z,9.6
2022-11-09T18:45:11.751Z,9.6
2022-11-09T18:48:11.775Z,9.8
2022-11-09T18:51:11.766Z,9.9
2022-11-09T18:54:11.869Z,9.9
2022-11-09T18:57:14.795Z,9.9
2022-11-09T19:00:11.865Z,9.9
2022-11-09T19:03:12.123Z,9.9
2022-11-09T19:06:11.926Z,9.9
2022-11-09T19:09:11.733Z,9.9
2022-11-09T19:12:11.739Z,10
2022-11-09T19:15:11.844Z,10
2022-11-09T19:18:11.789Z,10
2022-11-09T19:21:11.767Z,10.1
2022-11-09T19:24:11.788Z,10
2022-11-09T19:27:11.848Z,10.1
2022-11-09T19:30:20.326Z,10.1
2022-11-09T19:33:11.726Z,10.3
2022-11-09T19:36:41.990Z,10.3
2022-11-09T19:39:11.841Z,10.4
2022-11-09T19:42:11.768Z,10.4
2022-11-09T19:45:11.803Z,10.5
2022-11-09T19:48:11.792Z,10.5
2022-11-09T19:51:11.717Z,10.5
2022-11-09T19:54:11.805Z,10.5
2022-11-09T19:57:11.727Z,10.5
2022-11-09T20:00:11.875Z,10.5
2022-11-09T20:03:11.756Z,10.5
2022-11-09T20:06:11.942Z,10.4
2022-11-09T20:09:11.815Z,10.4
2022-11-09T20:12:11.723Z,10.4
2022-11-09T20:15:12.722Z,10.3
2022-11-09T20:18:12.070Z,10.3
2022-11-09T20:21:11.951Z,10.1
2022-11-09T20:24:11.748Z,10.1
2022-11-09T20:27:11.721Z,10.1
2022-11-09T20:30:11.761Z,10.1
2022-11-09T20:33:11.810Z,10.1
2022-11-09T20:36:11.833Z,10.1
2022-11-09T20:39:12.299Z,10.1
2022-11-09T20:42:11.727Z,10.1
2022-11-09T20:45:11.711Z,10
2022-11-09T20:51:11.747Z,9.9
2022-11-09T20:54:19.359Z,9.9
2022-11-09T20:57:11.681Z,9.9
2022-11-09T21:00:11.977Z,10
2022-11-09T21:03:11.669Z,10.1
2022-11-09T21:06:11.746Z,10.1
2022-11-09T21:09:11.750Z,10.1
2022-11-09T21:12:11.696Z,10
2022-11-09T21:15:11.748Z,10
2022-11-09T21:18:11.729Z,9.9
2022-11-09T21:21:11.982Z,9.9
2022-11-09T21:24:11.724Z,9.9
2022-11-09T21:27:11.812Z,9.9
2022-11-09T21:30:11.824Z,9.9
2022-11-09T21:33:11.794Z,10
2022-11-09T21:36:11.752Z,10
2022-11-09T21:39:11.789Z,10.1
2022-11-09T21:42:11.747Z,10.3
2022-11-09T21:45:12.057Z,10.3
2022-11-09T21:48:11.792Z,10.3
2022-11-09T21:51:11.825Z,10.3
2022-11-09T21:54:11.835Z,10.4
2022-11-09T21:57:11.737Z,10.4
2022-11-09T22:00:11.826Z,10.5
2022-11-09T22:03:11.770Z,10.6
2022-11-09T22:06:11.785Z,10.8
2022-11-09T22:09:11.922Z,10.9
2022-11-09T22:12:11.758Z,11
2022-11-09T22:15:11.722Z,11.1
2022-11-09T22:18:11.808Z,11.3
2022-11-09T22:21:11.843Z,11.4
2022-11-09T22:24:12.263Z,11.5
2022-11-09T22:27:11.758Z,11.5
2022-11-09T22:30:12.245Z,11.6
2022-11-09T22:33:11.776Z,11.6
2022-11-09T22:36:11.837Z,11.8
2022-11-09T22:39:11.731Z,11.8
2022-11-09T22:42:12.192Z,11.8
2022-11-09T22:45:11.792Z,11.8
2022-11-09T22:48:12.084Z,11.8
2022-11-09T22:51:11.682Z,11.8
2022-11-09T22:54:11.731Z,11.8
2022-11-09T22:57:11.695Z,11.8
2022-11-09T23:00:12.222Z,11.9
2022-11-09T23:03:11.715Z,11.8
2022-11-09T23:06:11.748Z,11.8
2022-11-09T23:09:11.780Z,11.8
2022-11-09T23:12:11.851Z,11.8
2022-11-09T23:15:11.974Z,11.6
2022-11-09T23:18:11.752Z,11.6
2022-11-09T23:21:11.790Z,11.5
2022-11-09T23:24:11.722Z,11.5
2022-11-09T23:27:11.740Z,11.4
2022-11-09T23:30:11.791Z,11.4
2022-11-09T23:33:11.784Z,11.3
2022-11-09T23:36:12.052Z,11.3
2022-11-09T23:39:11.699Z,11.1
2022-11-09T23:42:11.768Z,11.1
2022-11-09T23:45:11.748Z,11
2022-11-09T23:48:11.776Z,11.1
2022-11-09T23:51:11.719Z,11
2022-11-09T23:54:11.705Z,10.9
2022-11-09T23:57:11.687Z,10.9
